sensor_id;sensor_type;location;lat;lon;timestamp;temperature;humidity
837;DHT22;400;53.550;9.932;2023-11-18T00:01:23;6.60;1.00
837;DHT22;400;53.550;9.932;2023-11-18T00:03:50;6.70;1.00
837;DHT22;400;53.550;9.932;2023-11-18T00:06:17;6.70;1.00
837;DHT22;400;53.550;9.932;2023-11-18T00:08:43;6.60;1.00
837;DHT22;400;53.550;9.932;2023-11-18T00:11:10;6.70;1.00
837;DHT22;400;53.550;9.932;2023-11-18T00:13:40;6.60;1.00
837;DHT22;400;53.550;9.932;2023-11-18T00:16:08;6.70;1.00
837;DHT22;400;53.550;9.932;2023-11-18T00:18:38;6.70;1.00
837;DHT22;400;53.550;9.932;2023-11-18T00:21:07;6.70;1.00
837;DHT22;400;53.550;9.932;2023-11-18T00:23:38;6.80;1.00
837;DHT22;400;53.550;9.932;2023-11-18T00:26:08;6.80;1.00
837;DHT22;400;53.550;9.932;2023-11-18T00:28:36;6.80;1.00
837;DHT22;400;53.550;9.932;2023-11-18T00:31:04;6.80;1.00
837;DHT22;400;53.550;9.932;2023-11-18T00:33:31;6.80;1.00
837;DHT22;400;53.550;9.932;2023-11-18T00:35:58;6.90;1.00
837;DHT22;400;53.550;9.932;2023-11-18T00:38:25;6.90;1.00
837;DHT22;400;53.550;9.932;2023-11-18T00:40:52;6.90;1.00
837;DHT22;400;53.550;9.932;2023-11-18T00:43:19;7.00;1.00
837;DHT22;400;53.550;9.932;2023-11-18T00:45:48;7.00;1.00
837;DHT22;400;53.550;9.932;2023-11-18T00:48:16;6.90;1.00
837;DHT22;400;53.550;9.932;2023-11-18T00:50:43;6.90;1.00
837;DHT22;400;53.550;9.932;2023-11-18T00:53:11;6.90;1.00
837;DHT22;400;53.550;9.932;2023-11-18T00:55:38;7.00;1.00
837;DHT22;400;53.550;9.932;2023-11-18T00:58:05;7.00;1.00
837;DHT22;400;53.550;9.932;2023-11-18T01:00:32;7.00;1.00
837;DHT22;400;53.550;9.932;2023-11-18T01:02:59;6.90;1.00
837;DHT22;400;53.550;9.932;2023-11-18T01:05:28;6.90;1.00
837;DHT22;400;53.550;9.932;2023-11-18T01:07:57;6.90;1.00
837;DHT22;400;53.550;9.932;2023-11-18T01:10:24;6.90;1.00
837;DHT22;400;53.550;9.932;2023-11-18T01:12:51;7.00;1.00
837;DHT22;400;53.550;9.932;2023-11-18T01:15:20;6.90;1.00
837;DHT22;400;53.550;9.932;2023-11-18T01:17:49;6.80;1.00
837;DHT22;400;53.550;9.932;2023-11-18T01:20:16;6.90;1.00
837;DHT22;400;53.550;9.932;2023-11-18T01:22:48;6.90;1.00
837;DHT22;400;53.550;9.932;2023-11-18T01:25:15;6.90;1.00
837;DHT22;400;53.550;9.932;2023-11-18T01:27:44;6.80;1.00
837;DHT22;400;53.550;9.932;2023-11-18T01:30:13;6.80;1.00
837;DHT22;400;53.550;9.932;2023-11-18T01:32:40;6.80;1.00
837;DHT22;400;53.550;9.932;2023-11-18T01:35:08;6.80;1.00
837;DHT22;400;53.550;9.932;2023-11-18T01:37:36;6.80;1.00
837;DHT22;400;53.550;9.932;2023-11-18T01:40:07;6.90;1.00
837;DHT22;400;53.550;9.932;2023-11-18T01:42:34;6.80;1.00
837;DHT22;400;53.550;9.932;2023-11-18T01:45:03;6.90;1.00
837;DHT22;400;53.550;9.932;2023-11-18T01:47:32;7.00;1.00
837;DHT22;400;53.550;9.932;2023-11-18T01:50:00;7.00;1.00
837;DHT22;400;53.550;9.932;2023-11-18T01:52:28;7.10;1.00
837;DHT22;400;53.550;9.932;2023-11-18T01:54:56;7.10;1.00
837;DHT22;400;53.550;9.932;2023-11-18T01:57:25;7.20;1.00
837;DHT22;400;53.550;9.932;2023-11-18T01:59:53;7.20;1.00
837;DHT22;400;53.550;9.932;2023-11-18T02:02:20;7.20;1.00
837;DHT22;400;53.550;9.932;2023-11-18T02:04:47;7.20;1.00
837;DHT22;400;53.550;9.932;2023-11-18T02:07:15;7.20;1.00
837;DHT22;400;53.550;9.932;2023-11-18T02:09:43;7.20;1.00
837;DHT22;400;53.550;9.932;2023-11-18T02:12:18;7.20;1.00
837;DHT22;400;53.550;9.932;2023-11-18T02:14:49;7.10;1.00
837;DHT22;400;53.550;9.932;2023-11-18T02:17:19;7.00;1.00
837;DHT22;400;53.550;9.932;2023-11-18T02:19:49;6.90;1.00
837;DHT22;400;53.550;9.932;2023-11-18T02:22:17;7.00;1.00
837;DHT22;400;53.550;9.932;2023-11-18T02:24:46;7.00;1.00
837;DHT22;400;53.550;9.932;2023-11-18T02:27:14;7.10;1.00
837;DHT22;400;53.550;9.932;2023-11-18T02:29:43;7.00;1.00
837;DHT22;400;53.550;9.932;2023-11-18T02:32:18;7.10;1.00
837;DHT22;400;53.550;9.932;2023-11-18T02:34:53;7.00;1.00
837;DHT22;400;53.550;9.932;2023-11-18T02:37:24;6.90;1.00
837;DHT22;400;53.550;9.932;2023-11-18T02:39:53;6.80;1.00
837;DHT22;400;53.550;9.932;2023-11-18T02:42:26;6.80;1.00
837;DHT22;400;53.550;9.932;2023-11-18T02:44:53;6.70;1.00
837;DHT22;400;53.550;9.932;2023-11-18T02:47:25;6.60;1.00
837;DHT22;400;53.550;9.932;2023-11-18T02:49:54;6.60;1.00
837;DHT22;400;53.550;9.932;2023-11-18T02:52:22;6.60;1.00
837;DHT22;400;53.550;9.932;2023-11-18T02:54:49;6.70;1.00
837;DHT22;400;53.550;9.932;2023-11-18T02:57:16;6.70;1.00
837;DHT22;400;53.550;9.932;2023-11-18T02:59:44;6.70;1.00
837;DHT22;400;53.550;9.932;2023-11-18T03:02:12;6.70;1.00
837;DHT22;400;53.550;9.932;2023-11-18T03:04:40;6.80;1.00
837;DHT22;400;53.550;9.932;2023-11-18T03:07:09;6.80;1.00
837;DHT22;400;53.550;9.932;2023-11-18T03:09:37;6.80;1.00
837;DHT22;400;53.550;9.932;2023-11-18T03:12:06;6.80;1.00
837;DHT22;400;53.550;9.932;2023-11-18T03:14:33;6.80;1.00
837;DHT22;400;53.550;9.932;2023-11-18T03:17:04;6.70;1.00
837;DHT22;400;53.550;9.932;2023-11-18T03:19:33;6.70;1.00
837;DHT22;400;53.550;9.932;2023-11-18T03:22:01;6.70;1.00
837;DHT22;400;53.550;9.932;2023-11-18T03:24:29;6.80;1.00
837;DHT22;400;53.550;9.932;2023-11-18T03:26:56;6.70;1.00
837;DHT22;400;53.550;9.932;2023-11-18T03:29:23;6.70;1.00
837;DHT22;400;53.550;9.932;2023-11-18T03:31:50;6.60;1.00
837;DHT22;400;53.550;9.932;2023-11-18T03:34:19;6.60;1.00
837;DHT22;400;53.550;9.932;2023-11-18T03:36:48;6.60;1.00
837;DHT22;400;53.550;9.932;2023-11-18T03:39:17;6.70;1.00
837;DHT22;400;53.550;9.932;2023-11-18T03:41:44;6.70;1.00
837;DHT22;400;53.550;9.932;2023-11-18T03:44:12;6.70;1.00
837;DHT22;400;53.550;9.932;2023-11-18T03:46:39;6.60;1.00
837;DHT22;400;53.550;9.932;2023-11-18T03:49:06;6.60;1.00
837;DHT22;400;53.550;9.932;2023-11-18T03:51:34;6.60;1.00
837;DHT22;400;53.550;9.932;2023-11-18T03:54:01;6.70;1.00
837;DHT22;400;53.550;9.932;2023-11-18T03:56:28;6.80;1.00
837;DHT22;400;53.550;9.932;2023-11-18T03:58:55;6.80;1.00
837;DHT22;400;53.550;9.932;2023-11-18T04:01:24;6.80;1.00
837;DHT22;400;53.550;9.932;2023-11-18T04:03:53;6.70;1.00
837;DHT22;400;53.550;9.932;2023-11-18T04:06:20;6.80;1.00
837;DHT22;400;53.550;9.932;2023-11-18T04:08:49;6.80;1.00
837;DHT22;400;53.550;9.932;2023-11-18T04:11:17;6.90;1.00
837;DHT22;400;53.550;9.932;2023-11-18T04:13:44;6.80;1.00
837;DHT22;400;53.550;9.932;2023-11-18T04:16:11;6.70;1.00
837;DHT22;400;53.550;9.932;2023-11-18T04:18:39;6.50;1.00
837;DHT22;400;53.550;9.932;2023-11-18T04:21:07;6.60;1.00
837;DHT22;400;53.550;9.932;2023-11-18T04:23:34;6.70;1.00
837;DHT22;400;53.550;9.932;2023-11-18T04:26:04;6.70;1.00
837;DHT22;400;53.550;9.932;2023-11-18T04:28:31;6.60;1.00
837;DHT22;400;53.550;9.932;2023-11-18T04:30:58;6.60;1.00
837;DHT22;400;53.550;9.932;2023-11-18T04:33:26;6.40;1.00
837;DHT22;400;53.550;9.932;2023-11-18T04:35:55;6.40;1.00
837;DHT22;400;53.550;9.932;2023-11-18T04:38:23;6.50;1.00
837;DHT22;400;53.550;9.932;2023-11-18T04:40:51;6.60;1.00
837;DHT22;400;53.550;9.932;2023-11-18T04:43:23;6.40;1.00
837;DHT22;400;53.550;9.932;2023-11-18T04:45:51;6.40;1.00
837;DHT22;400;53.550;9.932;2023-11-18T04:48:18;6.40;1.00
837;DHT22;400;53.550;9.932;2023-11-18T04:50:47;6.50;1.00
837;DHT22;400;53.550;9.932;2023-11-18T04:53:14;6.50;1.00
837;DHT22;400;53.550;9.932;2023-11-18T04:55:41;6.50;1.00
837;DHT22;400;53.550;9.932;2023-11-18T04:58:08;6.40;1.00
837;DHT22;400;53.550;9.932;2023-11-18T05:00:36;6.40;1.00
837;DHT22;400;53.550;9.932;2023-11-18T05:03:04;6.30;1.00
837;DHT22;400;53.550;9.932;2023-11-18T05:05:35;6.20;1.00
837;DHT22;400;53.550;9.932;2023-11-18T05:08:04;6.10;1.00
837;DHT22;400;53.550;9.932;2023-11-18T05:10:32;6.20;1.00
837;DHT22;400;53.550;9.932;2023-11-18T05:12:59;6.20;1.00
837;DHT22;400;53.550;9.932;2023-11-18T05:15:26;6.30;1.00
837;DHT22;400;53.550;9.932;2023-11-18T05:17:56;6.30;1.00
837;DHT22;400;53.550;9.932;2023-11-18T05:20:23;6.40;1.00
837;DHT22;400;53.550;9.932;2023-11-18T05:22:50;6.40;1.00
837;DHT22;400;53.550;9.932;2023-11-18T05:25:17;6.40;1.00
837;DHT22;400;53.550;9.932;2023-11-18T05:27:44;6.50;1.00
837;DHT22;400;53.550;9.932;2023-11-18T05:30:12;6.50;1.00
837;DHT22;400;53.550;9.932;2023-11-18T05:32:39;6.50;1.00
837;DHT22;400;53.550;9.932;2023-11-18T05:35:08;6.40;1.00
837;DHT22;400;53.550;9.932;2023-11-18T05:37:37;6.40;1.00
837;DHT22;400;53.550;9.932;2023-11-18T05:40:08;6.50;1.00
837;DHT22;400;53.550;9.932;2023-11-18T05:42:37;6.50;1.00
837;DHT22;400;53.550;9.932;2023-11-18T05:45:07;6.40;1.00
837;DHT22;400;53.550;9.932;2023-11-18T05:47:43;6.50;1.00
837;DHT22;400;53.550;9.932;2023-11-18T05:50:11;6.50;1.00
837;DHT22;400;53.550;9.932;2023-11-18T05:52:40;6.60;1.00
837;DHT22;400;53.550;9.932;2023-11-18T05:55:08;6.60;1.00
837;DHT22;400;53.550;9.932;2023-11-18T05:57:36;6.60;1.00
837;DHT22;400;53.550;9.932;2023-11-18T06:00:04;6.60;1.00
837;DHT22;400;53.550;9.932;2023-11-18T06:02:32;6.60;1.00
837;DHT22;400;53.550;9.932;2023-11-18T06:04:59;6.60;1.00
837;DHT22;400;53.550;9.932;2023-11-18T06:07:30;6.50;1.00
837;DHT22;400;53.550;9.932;2023-11-18T06:09:58;6.50;1.00
837;DHT22;400;53.550;9.932;2023-11-18T06:12:25;6.50;1.00
837;DHT22;400;53.550;9.932;2023-11-18T06:14:52;6.50;1.00
837;DHT22;400;53.550;9.932;2023-11-18T06:17:19;6.50;1.00
837;DHT22;400;53.550;9.932;2023-11-18T06:19:47;6.50;1.00
837;DHT22;400;53.550;9.932;2023-11-18T06:22:14;6.50;1.00
837;DHT22;400;53.550;9.932;2023-11-18T06:24:42;6.50;1.00
837;DHT22;400;53.550;9.932;2023-11-18T06:27:10;6.40;1.00
837;DHT22;400;53.550;9.932;2023-11-18T06:29:36;6.30;1.00
837;DHT22;400;53.550;9.932;2023-11-18T06:32:04;6.20;1.00
837;DHT22;400;53.550;9.932;2023-11-18T06:34:31;6.20;1.00
837;DHT22;400;53.550;9.932;2023-11-18T06:36:59;6.20;1.00
837;DHT22;400;53.550;9.932;2023-11-18T06:39:26;6.20;1.00
837;DHT22;400;53.550;9.932;2023-11-18T06:41:56;6.30;1.00
837;DHT22;400;53.550;9.932;2023-11-18T06:44:26;6.30;1.00
837;DHT22;400;53.550;9.932;2023-11-18T06:47:00;6.30;1.00
837;DHT22;400;53.550;9.932;2023-11-18T06:49:32;6.30;1.00
837;DHT22;400;53.550;9.932;2023-11-18T06:52:00;6.40;1.00
837;DHT22;400;53.550;9.932;2023-11-18T06:54:28;6.40;1.00
837;DHT22;400;53.550;9.932;2023-11-18T06:56:57;6.40;1.00
837;DHT22;400;53.550;9.932;2023-11-18T06:59:24;6.40;1.00
837;DHT22;400;53.550;9.932;2023-11-18T07:01:51;6.40;1.00
837;DHT22;400;53.550;9.932;2023-11-18T07:04:18;6.50;1.00
837;DHT22;400;53.550;9.932;2023-11-18T07:06:45;6.50;1.00
837;DHT22;400;53.550;9.932;2023-11-18T07:09:14;6.50;1.00
837;DHT22;400;53.550;9.932;2023-11-18T07:11:48;6.60;1.00
837;DHT22;400;53.550;9.932;2023-11-18T07:14:22;6.60;1.00
837;DHT22;400;53.550;9.932;2023-11-18T07:16:51;6.60;1.00
837;DHT22;400;53.550;9.932;2023-11-18T07:19:18;6.60;1.00
837;DHT22;400;53.550;9.932;2023-11-18T07:21:46;6.70;1.00
837;DHT22;400;53.550;9.932;2023-11-18T07:24:13;6.70;1.00
837;DHT22;400;53.550;9.932;2023-11-18T07:26:40;6.70;1.00
837;DHT22;400;53.550;9.932;2023-11-18T07:29:08;6.70;1.00
837;DHT22;400;53.550;9.932;2023-11-18T07:31:37;6.70;1.00
837;DHT22;400;53.550;9.932;2023-11-18T07:34:04;6.70;1.00
837;DHT22;400;53.550;9.932;2023-11-18T07:36:32;6.80;1.00
837;DHT22;400;53.550;9.932;2023-11-18T07:38:59;6.80;1.00
837;DHT22;400;53.550;9.932;2023-11-18T07:41:28;6.80;1.00
837;DHT22;400;53.550;9.932;2023-11-18T07:43:57;6.80;1.00
837;DHT22;400;53.550;9.932;2023-11-18T07:46:26;6.80;1.00
837;DHT22;400;53.550;9.932;2023-11-18T07:48:58;6.80;1.00
837;DHT22;400;53.550;9.932;2023-11-18T07:51:27;6.80;1.00
837;DHT22;400;53.550;9.932;2023-11-18T07:53:54;6.80;1.00
837;DHT22;400;53.550;9.932;2023-11-18T07:56:22;6.80;1.00
837;DHT22;400;53.550;9.932;2023-11-18T07:58:49;6.80;1.00
837;DHT22;400;53.550;9.932;2023-11-18T08:01:17;6.90;1.00
837;DHT22;400;53.550;9.932;2023-11-18T08:03:47;6.90;1.00
837;DHT22;400;53.550;9.932;2023-11-18T08:06:15;6.90;1.00
837;DHT22;400;53.550;9.932;2023-11-18T08:08:42;6.90;1.00
837;DHT22;400;53.550;9.932;2023-11-18T08:11:11;6.90;1.00
837;DHT22;400;53.550;9.932;2023-11-18T08:13:38;6.90;1.00
837;DHT22;400;53.550;9.932;2023-11-18T08:16:07;6.90;1.00
837;DHT22;400;53.550;9.932;2023-11-18T08:18:36;7.00;1.00
837;DHT22;400;53.550;9.932;2023-11-18T08:21:05;7.00;1.00
837;DHT22;400;53.550;9.932;2023-11-18T08:28:53;7.00;1.00
837;DHT22;400;53.550;9.932;2023-11-18T08:31:20;7.00;1.00
837;DHT22;400;53.550;9.932;2023-11-18T08:33:47;7.00;1.00
837;DHT22;400;53.550;9.932;2023-11-18T08:36:16;7.10;1.00
837;DHT22;400;53.550;9.932;2023-11-18T08:38:43;7.10;1.00
837;DHT22;400;53.550;9.932;2023-11-18T08:41:12;7.10;1.00
837;DHT22;400;53.550;9.932;2023-11-18T08:43:40;7.00;1.00
837;DHT22;400;53.550;9.932;2023-11-18T08:46:09;7.10;1.00
837;DHT22;400;53.550;9.932;2023-11-18T08:48:39;7.00;1.00
837;DHT22;400;53.550;9.932;2023-11-18T08:51:07;7.00;1.00
837;DHT22;400;53.550;9.932;2023-11-18T08:53:35;7.00;1.00
837;DHT22;400;53.550;9.932;2023-11-18T08:56:08;7.00;1.00
837;DHT22;400;53.550;9.932;2023-11-18T08:58:40;7.00;1.00
837;DHT22;400;53.550;9.932;2023-11-18T09:01:09;7.00;1.00
837;DHT22;400;53.550;9.932;2023-11-18T09:03:40;7.00;1.00
837;DHT22;400;53.550;9.932;2023-11-18T09:06:15;7.00;1.00
837;DHT22;400;53.550;9.932;2023-11-18T09:08:52;7.00;1.00
837;DHT22;400;53.550;9.932;2023-11-18T09:11:20;7.00;1.00
837;DHT22;400;53.550;9.932;2023-11-18T09:13:49;7.00;1.00
837;DHT22;400;53.550;9.932;2023-11-18T09:16:20;7.10;1.00
837;DHT22;400;53.550;9.932;2023-11-18T09:18:50;7.10;1.00
837;DHT22;400;53.550;9.932;2023-11-18T09:21:22;7.10;1.00
837;DHT22;400;53.550;9.932;2023-11-18T09:23:51;7.10;1.00
837;DHT22;400;53.550;9.932;2023-11-18T09:26:18;7.10;1.00
837;DHT22;400;53.550;9.932;2023-11-18T09:28:46;7.10;1.00
837;DHT22;400;53.550;9.932;2023-11-18T09:31:16;7.10;1.00
837;DHT22;400;53.550;9.932;2023-11-18T09:33:45;7.10;1.00
837;DHT22;400;53.550;9.932;2023-11-18T09:36:18;7.10;1.00
837;DHT22;400;53.550;9.932;2023-11-18T09:38:46;7.10;1.00
837;DHT22;400;53.550;9.932;2023-11-18T09:41:15;7.10;1.00
837;DHT22;400;53.550;9.932;2023-11-18T09:43:43;7.10;1.00
837;DHT22;400;53.550;9.932;2023-11-18T09:46:13;7.10;1.00
837;DHT22;400;53.550;9.932;2023-11-18T09:48:48;7.00;1.00
837;DHT22;400;53.550;9.932;2023-11-18T09:51:20;7.00;1.00
837;DHT22;400;53.550;9.932;2023-11-18T09:53:50;7.00;1.00
837;DHT22;400;53.550;9.932;2023-11-18T09:56:20;7.00;1.00
837;DHT22;400;53.550;9.932;2023-11-18T09:59:01;7.10;1.00
837;DHT22;400;53.550;9.932;2023-11-18T10:01:35;7.10;1.00
837;DHT22;400;53.550;9.932;2023-11-18T10:04:07;7.10;1.00
837;DHT22;400;53.550;9.932;2023-11-18T10:06:43;7.10;1.00
837;DHT22;400;53.550;9.932;2023-11-18T10:09:15;7.10;1.00
837;DHT22;400;53.550;9.932;2023-11-18T10:11:53;7.20;1.00
837;DHT22;400;53.550;9.932;2023-11-18T10:14:27;7.20;1.00
837;DHT22;400;53.550;9.932;2023-11-18T10:16:55;7.20;1.00
837;DHT22;400;53.550;9.932;2023-11-18T10:19:56;7.20;1.00
837;DHT22;400;53.550;9.932;2023-11-18T10:22:26;7.20;1.00
837;DHT22;400;53.550;9.932;2023-11-18T10:24:54;7.20;1.00
837;DHT22;400;53.550;9.932;2023-11-18T10:27:23;7.30;1.00
837;DHT22;400;53.550;9.932;2023-11-18T10:29:58;7.30;1.00
837;DHT22;400;53.550;9.932;2023-11-18T10:32:28;7.30;1.00
837;DHT22;400;53.550;9.932;2023-11-18T10:34:59;7.30;1.00
837;DHT22;400;53.550;9.932;2023-11-18T10:37:27;7.40;1.00
837;DHT22;400;53.550;9.932;2023-11-18T10:39:56;7.40;1.00
837;DHT22;400;53.550;9.932;2023-11-18T10:42:26;7.40;1.00
837;DHT22;400;53.550;9.932;2023-11-18T10:44:59;7.40;1.00
837;DHT22;400;53.550;9.932;2023-11-18T10:47:28;7.40;1.00
837;DHT22;400;53.550;9.932;2023-11-18T10:49:56;7.50;1.00
837;DHT22;400;53.550;9.932;2023-11-18T10:52:25;7.50;1.00
837;DHT22;400;53.550;9.932;2023-11-18T10:54:56;7.50;1.00
837;DHT22;400;53.550;9.932;2023-11-18T10:57:24;7.50;1.00
837;DHT22;400;53.550;9.932;2023-11-18T11:00:01;7.50;1.00
837;DHT22;400;53.550;9.932;2023-11-18T11:02:30;7.60;1.00
837;DHT22;400;53.550;9.932;2023-11-18T11:05:02;7.60;1.00
837;DHT22;400;53.550;9.932;2023-11-18T11:07:32;7.70;1.00
837;DHT22;400;53.550;9.932;2023-11-18T11:10:01;7.70;1.00
837;DHT22;400;53.550;9.932;2023-11-18T11:12:33;7.70;1.00
837;DHT22;400;53.550;9.932;2023-11-18T11:15:08;7.70;1.00
837;DHT22;400;53.550;9.932;2023-11-18T11:17:51;7.70;1.00
837;DHT22;400;53.550;9.932;2023-11-18T11:20:22;7.80;1.00
837;DHT22;400;53.550;9.932;2023-11-18T11:23:14;7.80;1.00
837;DHT22;400;53.550;9.932;2023-11-18T11:25:55;7.80;1.00
837;DHT22;400;53.550;9.932;2023-11-18T11:28:29;7.70;1.00
837;DHT22;400;53.550;9.932;2023-11-18T11:31:10;7.80;1.00
837;DHT22;400;53.550;9.932;2023-11-18T11:33:45;7.70;1.00
837;DHT22;400;53.550;9.932;2023-11-18T11:36:22;7.80;1.00
837;DHT22;400;53.550;9.932;2023-11-18T11:38:54;7.80;1.00
837;DHT22;400;53.550;9.932;2023-11-18T11:41:23;7.80;1.00
837;DHT22;400;53.550;9.932;2023-11-18T11:43:59;7.80;1.00
837;DHT22;400;53.550;9.932;2023-11-18T11:46:28;7.80;1.00
837;DHT22;400;53.550;9.932;2023-11-18T11:49:00;7.80;1.00
837;DHT22;400;53.550;9.932;2023-11-18T11:51:39;7.80;1.00
837;DHT22;400;53.550;9.932;2023-11-18T11:54:16;7.80;1.00
837;DHT22;400;53.550;9.932;2023-11-18T11:56:48;7.90;1.00
837;DHT22;400;53.550;9.932;2023-11-18T11:59:35;7.90;1.00
837;DHT22;400;53.550;9.932;2023-11-18T12:02:04;7.90;1.00
837;DHT22;400;53.550;9.932;2023-11-18T12:04:34;7.90;1.00
837;DHT22;400;53.550;9.932;2023-11-18T12:07:06;7.90;1.00
837;DHT22;400;53.550;9.932;2023-11-18T12:09:39;7.90;1.00
837;DHT22;400;53.550;9.932;2023-11-18T12:12:23;8.00;1.00
837;DHT22;400;53.550;9.932;2023-11-18T12:14:56;8.00;1.00
837;DHT22;400;53.550;9.932;2023-11-18T12:18:11;8.00;1.00
837;DHT22;400;53.550;9.932;2023-11-18T12:20:45;8.00;1.00
837;DHT22;400;53.550;9.932;2023-11-18T12:23:13;8.00;1.00
837;DHT22;400;53.550;9.932;2023-11-18T12:25:42;8.10;1.00
837;DHT22;400;53.550;9.932;2023-11-18T12:28:17;8.10;1.00
837;DHT22;400;53.550;9.932;2023-11-18T12:30:47;8.10;1.00
837;DHT22;400;53.550;9.932;2023-11-18T12:33:23;8.10;1.00
837;DHT22;400;53.550;9.932;2023-11-18T12:36:47;8.20;1.00
837;DHT22;400;53.550;9.932;2023-11-18T12:40:03;8.20;1.00
837;DHT22;400;53.550;9.932;2023-11-18T12:43:00;8.20;1.00
837;DHT22;400;53.550;9.932;2023-11-18T12:45:53;8.20;1.00
837;DHT22;400;53.550;9.932;2023-11-18T12:48:32;8.20;1.00
837;DHT22;400;53.550;9.932;2023-11-18T12:51:10;8.20;1.00
837;DHT22;400;53.550;9.932;2023-11-18T12:53:46;8.20;1.00
837;DHT22;400;53.550;9.932;2023-11-18T12:56:15;8.20;1.00
837;DHT22;400;53.550;9.932;2023-11-18T12:58:47;8.20;1.00
837;DHT22;400;53.550;9.932;2023-11-18T13:01:15;8.20;1.00
837;DHT22;400;53.550;9.932;2023-11-18T13:03:44;8.20;1.00
837;DHT22;400;53.550;9.932;2023-11-18T13:06:14;8.20;1.00
837;DHT22;400;53.550;9.932;2023-11-18T13:08:46;8.20;1.00
837;DHT22;400;53.550;9.932;2023-11-18T13:11:18;8.20;1.00
837;DHT22;400;53.550;9.932;2023-11-18T13:13:47;8.20;1.00
837;DHT22;400;53.550;9.932;2023-11-18T13:16:15;8.20;1.00
837;DHT22;400;53.550;9.932;2023-11-18T13:18:45;8.20;1.00
837;DHT22;400;53.550;9.932;2023-11-18T13:21:18;8.20;1.00
837;DHT22;400;53.550;9.932;2023-11-18T13:23:51;8.20;1.00
837;DHT22;400;53.550;9.932;2023-11-18T13:26:20;8.20;1.00
837;DHT22;400;53.550;9.932;2023-11-18T13:28:49;8.10;1.00
837;DHT22;400;53.550;9.932;2023-11-18T13:31:17;8.10;1.00
837;DHT22;400;53.550;9.932;2023-11-18T13:33:48;8.20;1.00
837;DHT22;400;53.550;9.932;2023-11-18T13:36:20;8.20;1.00
837;DHT22;400;53.550;9.932;2023-11-18T13:38:53;8.10;1.00
837;DHT22;400;53.550;9.932;2023-11-18T13:41:29;8.20;1.00
837;DHT22;400;53.550;9.932;2023-11-18T13:43:58;8.20;1.00
837;DHT22;400;53.550;9.932;2023-11-18T13:46:26;8.20;1.00
837;DHT22;400;53.550;9.932;2023-11-18T13:48:57;8.20;1.00
837;DHT22;400;53.550;9.932;2023-11-18T13:51:28;8.20;1.00
837;DHT22;400;53.550;9.932;2023-11-18T13:53:59;8.10;1.00
837;DHT22;400;53.550;9.932;2023-11-18T13:56:28;8.20;1.00
837;DHT22;400;53.550;9.932;2023-11-18T13:58:55;8.20;1.00
837;DHT22;400;53.550;9.932;2023-11-18T14:01:25;8.20;1.00
837;DHT22;400;53.550;9.932;2023-11-18T14:03:55;8.20;1.00
837;DHT22;400;53.550;9.932;2023-11-18T14:06:32;8.10;1.00
837;DHT22;400;53.550;9.932;2023-11-18T14:09:03;8.10;1.00
837;DHT22;400;53.550;9.932;2023-11-18T14:11:31;8.10;1.00
837;DHT22;400;53.550;9.932;2023-11-18T14:14:01;8.10;1.00
837;DHT22;400;53.550;9.932;2023-11-18T14:16:32;8.00;1.00
837;DHT22;400;53.550;9.932;2023-11-18T14:19:00;8.00;1.00
837;DHT22;400;53.550;9.932;2023-11-18T14:21:28;8.00;1.00
837;DHT22;400;53.550;9.932;2023-11-18T14:23:55;8.00;1.00
837;DHT22;400;53.550;9.932;2023-11-18T14:26:25;8.00;1.00
837;DHT22;400;53.550;9.932;2023-11-18T14:28:53;8.00;1.00
837;DHT22;400;53.550;9.932;2023-11-18T14:31:21;8.00;1.00
837;DHT22;400;53.550;9.932;2023-11-18T14:33:50;8.00;1.00
837;DHT22;400;53.550;9.932;2023-11-18T14:36:18;8.00;1.00
837;DHT22;400;53.550;9.932;2023-11-18T14:38:46;7.90;1.00
837;DHT22;400;53.550;9.932;2023-11-18T14:41:13;7.90;1.00
837;DHT22;400;53.550;9.932;2023-11-18T14:43:41;7.90;1.00
837;DHT22;400;53.550;9.932;2023-11-18T14:46:09;7.90;1.00
837;DHT22;400;53.550;9.932;2023-11-18T14:48:39;7.90;1.00
837;DHT22;400;53.550;9.932;2023-11-18T14:51:18;7.90;1.00
837;DHT22;400;53.550;9.932;2023-11-18T14:53:48;7.90;1.00
837;DHT22;400;53.550;9.932;2023-11-18T14:56:16;7.90;1.00
837;DHT22;400;53.550;9.932;2023-11-18T14:58:44;7.90;1.00
837;DHT22;400;53.550;9.932;2023-11-18T15:01:14;7.90;1.00
837;DHT22;400;53.550;9.932;2023-11-18T15:03:45;7.90;1.00
837;DHT22;400;53.550;9.932;2023-11-18T15:06:13;7.80;1.00
837;DHT22;400;53.550;9.932;2023-11-18T15:08:45;7.80;1.00
837;DHT22;400;53.550;9.932;2023-11-18T15:11:13;7.80;1.00
837;DHT22;400;53.550;9.932;2023-11-18T15:13:47;7.80;1.00
837;DHT22;400;53.550;9.932;2023-11-18T15:16:14;7.80;1.00
837;DHT22;400;53.550;9.932;2023-11-18T15:18:44;7.80;1.00
837;DHT22;400;53.550;9.932;2023-11-18T15:21:12;7.80;1.00
837;DHT22;400;53.550;9.932;2023-11-18T15:23:40;7.80;1.00
837;DHT22;400;53.550;9.932;2023-11-18T15:26:09;7.80;1.00
837;DHT22;400;53.550;9.932;2023-11-18T15:28:37;7.80;1.00
837;DHT22;400;53.550;9.932;2023-11-18T15:31:05;7.80;1.00
837;DHT22;400;53.550;9.932;2023-11-18T15:33:33;7.80;1.00
837;DHT22;400;53.550;9.932;2023-11-18T15:36:00;7.80;1.00
837;DHT22;400;53.550;9.932;2023-11-18T15:38:27;7.80;1.00
837;DHT22;400;53.550;9.932;2023-11-18T15:40:57;7.80;1.00
837;DHT22;400;53.550;9.932;2023-11-18T15:43:26;7.80;1.00
837;DHT22;400;53.550;9.932;2023-11-18T15:45:56;7.80;1.00
837;DHT22;400;53.550;9.932;2023-11-18T15:48:24;7.80;1.00
837;DHT22;400;53.550;9.932;2023-11-18T15:50:52;7.80;1.00
837;DHT22;400;53.550;9.932;2023-11-18T15:53:21;7.80;1.00
837;DHT22;400;53.550;9.932;2023-11-18T15:55:50;7.80;1.00
837;DHT22;400;53.550;9.932;2023-11-18T15:58:19;7.70;1.00
837;DHT22;400;53.550;9.932;2023-11-18T16:00:51;7.70;1.00
837;DHT22;400;53.550;9.932;2023-11-18T16:03:22;7.70;1.00
837;DHT22;400;53.550;9.932;2023-11-18T16:05:53;7.80;1.00
837;DHT22;400;53.550;9.932;2023-11-18T16:08:22;7.80;1.00
837;DHT22;400;53.550;9.932;2023-11-18T16:10:49;7.80;1.00
837;DHT22;400;53.550;9.932;2023-11-18T16:13:20;7.80;1.00
837;DHT22;400;53.550;9.932;2023-11-18T16:15:52;7.80;1.00
837;DHT22;400;53.550;9.932;2023-11-18T16:18:22;7.80;1.00
837;DHT22;400;53.550;9.932;2023-11-18T16:20:52;7.80;1.00
837;DHT22;400;53.550;9.932;2023-11-18T16:23:29;7.80;1.00
837;DHT22;400;53.550;9.932;2023-11-18T16:26:03;7.80;1.00
837;DHT22;400;53.550;9.932;2023-11-18T16:28:35;7.80;1.00
837;DHT22;400;53.550;9.932;2023-11-18T16:31:09;7.80;1.00
837;DHT22;400;53.550;9.932;2023-11-18T16:33:39;7.80;1.00
837;DHT22;400;53.550;9.932;2023-11-18T16:36:09;7.80;1.00
837;DHT22;400;53.550;9.932;2023-11-18T16:38:44;7.80;1.00
837;DHT22;400;53.550;9.932;2023-11-18T16:41:11;7.80;1.00
837;DHT22;400;53.550;9.932;2023-11-18T16:43:42;7.80;1.00
837;DHT22;400;53.550;9.932;2023-11-18T16:46:13;7.80;1.00
837;DHT22;400;53.550;9.932;2023-11-18T16:48:44;7.80;1.00
837;DHT22;400;53.550;9.932;2023-11-18T16:51:14;7.80;1.00
837;DHT22;400;53.550;9.932;2023-11-18T16:53:42;7.80;1.00
837;DHT22;400;53.550;9.932;2023-11-18T16:56:11;7.90;1.00
837;DHT22;400;53.550;9.932;2023-11-18T16:58:38;7.90;1.00
837;DHT22;400;53.550;9.932;2023-11-18T17:01:06;7.90;1.00
837;DHT22;400;53.550;9.932;2023-11-18T17:03:37;7.90;1.00
837;DHT22;400;53.550;9.932;2023-11-18T17:06:06;7.90;1.00
837;DHT22;400;53.550;9.932;2023-11-18T17:08:34;7.90;1.00
837;DHT22;400;53.550;9.932;2023-11-18T17:11:01;7.80;1.00
837;DHT22;400;53.550;9.932;2023-11-18T17:13:30;7.80;1.00
837;DHT22;400;53.550;9.932;2023-11-18T17:15:58;7.80;1.00
837;DHT22;400;53.550;9.932;2023-11-18T17:18:28;7.80;1.00
837;DHT22;400;53.550;9.932;2023-11-18T17:21:01;7.70;1.00
837;DHT22;400;53.550;9.932;2023-11-18T17:23:32;7.80;1.00
837;DHT22;400;53.550;9.932;2023-11-18T17:25:59;7.80;1.00
837;DHT22;400;53.550;9.932;2023-11-18T17:28:28;7.80;1.00
837;DHT22;400;53.550;9.932;2023-11-18T17:31:00;7.70;1.00
837;DHT22;400;53.550;9.932;2023-11-18T17:33:28;7.70;1.00